createdAt,value
2022-11-16T00:00:10.792Z,3.93
2022-11-16T00:02:13.597Z,3.96
2022-11-16T00:04:16.609Z,3.97
2022-11-16T00:06:25.734Z,4.00
2022-11-16T00:08:34.358Z,3.99
2022-11-16T00:10:39.349Z,3.97
2022-11-16T00:12:41.132Z,3.99
2022-11-16T00:14:46.016Z,4.00
2022-11-16T00:16:51.774Z,4.01
2022-11-16T00:18:58.472Z,4.01
2022-11-16T00:21:07.361Z,4.00
2022-11-16T00:23:09.294Z,4.02
2022-11-16T00:25:11.304Z,4.05
2022-11-16T00:27:13.341Z,4.07
2022-11-16T00:29:24.735Z,4.09
2022-11-16T00:31:33.699Z,4.09
2022-11-16T00:33:36.012Z,4.11
2022-11-16T00:35:39.858Z,4.12
2022-11-16T00:37:51.154Z,4.11
2022-11-16T00:39:52.958Z,4.09
2022-11-16T00:42:05.150Z,4.10
2022-11-16T00:44:13.453Z,4.10
2022-11-16T00:46:18.071Z,4.12
2022-11-16T00:48:21.667Z,4.11
2022-11-16T00:50:24.562Z,4.12
2022-11-16T00:52:26.542Z,4.13
2022-11-16T00:54:31.193Z,4.13
2022-11-16T00:56:35.735Z,4.13
2022-11-16T00:58:37.650Z,4.11
2022-11-16T01:00:42.201Z,4.13
2022-11-16T01:02:44.313Z,4.12
2022-11-16T01:04:46.131Z,4.12
2022-11-16T01:06:48.051Z,4.14
2022-11-16T01:08:50.522Z,4.13
2022-11-16T01:10:53.520Z,4.12
2022-11-16T01:12:56.222Z,4.14
2022-11-16T01:14:58.089Z,4.14
2022-11-16T01:16:59.977Z,4.15
2022-11-16T01:19:06.167Z,4.15
2022-11-16T01:21:08.373Z,4.17
2022-11-16T01:23:10.219Z,4.17
2022-11-16T01:25:15.167Z,4.18
2022-11-16T01:27:16.952Z,4.15
2022-11-16T01:29:18.876Z,4.17
2022-11-16T01:31:21.864Z,4.20
2022-11-16T01:33:24.142Z,4.19
2022-11-16T01:35:27.042Z,4.21
2022-11-16T01:37:30.225Z,4.24
2022-11-16T01:39:35.079Z,4.23
2022-11-16T01:41:36.927Z,4.23
2022-11-16T01:43:52.435Z,4.22
2022-11-16T01:45:54.380Z,4.26
2022-11-16T01:47:56.267Z,4.28
2022-11-16T01:50:19.157Z,4.26
2022-11-16T01:52:25.368Z,4.28
2022-11-16T01:54:28.983Z,4.31
2022-11-16T01:56:33.015Z,4.37
2022-11-16T01:58:35.637Z,4.35
2022-11-16T02:00:37.707Z,4.34
2022-11-16T02:02:39.515Z,4.32
2022-11-16T02:04:41.837Z,4.30
2022-11-16T02:07:13.549Z,4.29
2022-11-16T02:09:53.066Z,4.34
2022-11-16T02:12:25.995Z,4.35
2022-11-16T02:14:55.091Z,4.36
2022-11-16T02:17:21.010Z,4.38
2022-11-16T02:19:34.891Z,4.42
2022-11-16T02:22:18.924Z,4.42
2022-11-16T02:24:44.385Z,4.45
2022-11-16T02:27:01.139Z,4.49
2022-11-16T02:29:12.018Z,4.48
2022-11-16T02:31:18.662Z,4.46
2022-11-16T02:33:27.951Z,4.50
2022-11-16T02:35:47.415Z,4.47
2022-11-16T02:37:58.133Z,4.44
2022-11-16T02:40:04.936Z,4.43
2022-11-16T02:42:14.146Z,4.39
2022-11-16T02:44:40.370Z,4.38
2022-11-16T02:46:46.294Z,4.43
2022-11-16T02:48:53.463Z,4.49
2022-11-16T02:50:56.211Z,4.49
2022-11-16T02:52:58.183Z,4.50
2022-11-16T02:55:00.012Z,4.43
2022-11-16T02:57:04.887Z,4.40
2022-11-16T02:59:08.822Z,4.42
2022-11-16T03:01:35.490Z,4.42
2022-11-16T03:03:59.188Z,4.40
2022-11-16T03:06:11.692Z,4.41
2022-11-16T03:08:29.730Z,4.42
2022-11-16T03:10:54.350Z,4.40
2022-11-16T03:12:57.480Z,4.43
2022-11-16T03:15:05.041Z,4.36
2022-11-16T03:17:17.993Z,4.36
2022-11-16T03:22:42.150Z,4.40
2022-11-16T03:24:44.538Z,4.41
2022-11-16T03:26:58.045Z,4.36
2022-11-16T03:29:20.261Z,4.33
2022-11-16T03:31:42.309Z,4.28
2022-11-16T03:33:48.761Z,4.30
2022-11-16T03:36:05.313Z,4.29
2022-11-16T03:38:09.870Z,4.30
2022-11-16T03:40:13.343Z,4.32
2022-11-16T03:42:16.742Z,4.31
2022-11-16T03:44:21.385Z,4.29
2022-11-16T03:46:24.509Z,4.29
2022-11-16T03:48:36.033Z,4.30
2022-11-16T03:50:38.550Z,4.30
2022-11-16T03:52:40.558Z,4.31
2022-11-16T03:54:42.981Z,4.28
2022-11-16T03:56:44.760Z,4.31
2022-11-16T03:58:46.827Z,4.30
2022-11-16T04:00:48.949Z,4.27
2022-11-16T04:02:52.793Z,4.25
2022-11-16T04:05:13.257Z,4.25
2022-11-16T04:07:33.947Z,4.25
2022-11-16T04:09:54.478Z,4.27
2022-11-16T04:12:15.127Z,4.28
2022-11-16T04:14:42.480Z,4.25
2022-11-16T04:17:02.735Z,4.25
2022-11-16T04:19:29.256Z,4.27
2022-11-16T04:21:58.914Z,4.28
2022-11-16T04:24:13.013Z,4.28
2022-11-16T04:26:15.071Z,4.29
2022-11-16T04:28:19.847Z,4.29
2022-11-16T04:30:21.897Z,4.28
2022-11-16T04:32:42.143Z,4.29
2022-11-16T04:35:02.809Z,4.27
2022-11-16T04:37:39.243Z,4.26
2022-11-16T04:39:43.103Z,4.26
2022-11-16T04:42:03.381Z,4.28
2022-11-16T04:44:05.300Z,4.27
2022-11-16T04:46:25.782Z,4.25
2022-11-16T04:48:27.639Z,4.28
2022-11-16T04:50:29.551Z,4.27
2022-11-16T04:52:31.433Z,4.27
2022-11-16T04:54:34.287Z,4.29
2022-11-16T04:56:36.154Z,4.28
2022-11-16T04:58:46.663Z,4.27
2022-11-16T05:00:50.463Z,4.27
2022-11-16T05:02:59.710Z,4.25
2022-11-16T05:05:03.705Z,4.27
2022-11-16T05:07:12.088Z,4.27
2022-11-16T05:09:19.822Z,4.29
2022-11-16T05:11:24.053Z,4.27
2022-11-16T05:13:25.926Z,4.25
2022-11-16T05:15:27.855Z,4.25
2022-11-16T05:17:29.910Z,4.23
2022-11-16T05:20:09.056Z,4.26
2022-11-16T05:22:11.888Z,4.24
2022-11-16T05:24:32.458Z,4.23
2022-11-16T05:26:37.311Z,4.23
2022-11-16T05:28:39.160Z,4.25
2022-11-16T05:30:45.938Z,4.26
2022-11-16T05:32:47.812Z,4.25
2022-11-16T05:34:50.153Z,4.24
2022-11-16T05:36:53.651Z,4.21
2022-11-16T05:38:56.448Z,4.20
2022-11-16T05:40:58.361Z,4.22
2022-11-16T05:43:03.375Z,4.20
2022-11-16T05:45:05.725Z,4.23
2022-11-16T05:47:10.809Z,4.24
2022-11-16T05:49:13.580Z,4.23
2022-11-16T05:51:15.786Z,4.23
2022-11-16T05:53:17.628Z,4.19
2022-11-16T05:55:19.449Z,4.19
2022-11-16T05:57:31.353Z,4.25
2022-11-16T05:59:33.345Z,4.21
2022-11-16T06:01:35.315Z,4.21
2022-11-16T06:03:37.281Z,4.17
2022-11-16T06:05:40.725Z,4.22
2022-11-16T06:07:42.725Z,4.21
2022-11-16T06:09:45.565Z,4.23
2022-11-16T06:11:47.494Z,4.20
2022-11-16T06:13:55.463Z,4.23
2022-11-16T06:15:57.650Z,4.20
2022-11-16T06:17:59.448Z,4.22
2022-11-16T06:20:03.503Z,4.22
2022-11-16T06:22:07.248Z,4.25
2022-11-16T06:24:10.206Z,4.28
2022-11-16T06:26:12.083Z,4.28
2022-11-16T06:28:15.339Z,4.30
2022-11-16T06:30:17.404Z,4.30
2022-11-16T06:32:19.283Z,4.32
2022-11-16T06:34:21.173Z,4.32
2022-11-16T06:36:23.223Z,4.31
2022-11-16T06:38:31.120Z,4.35
2022-11-16T06:40:34.291Z,4.35
2022-11-16T06:42:36.254Z,4.37
2022-11-16T06:44:38.143Z,4.38
2022-11-16T06:46:40.087Z,4.38
2022-11-16T06:48:41.950Z,4.38
2022-11-16T06:50:43.872Z,4.39
2022-11-16T06:52:46.962Z,4.44
2022-11-16T06:54:48.822Z,4.46
2022-11-16T06:56:50.717Z,4.44
2022-11-16T06:58:53.626Z,4.44
2022-11-16T07:00:55.632Z,4.49
2022-11-16T07:02:57.653Z,4.46
2022-11-16T07:05:03.479Z,4.47
2022-11-16T07:07:07.286Z,4.48
2022-11-16T07:09:09.905Z,4.53
2022-11-16T07:11:12.799Z,4.53
2022-11-16T07:13:15.807Z,4.52
2022-11-16T07:15:17.892Z,4.49
2022-11-16T07:17:19.804Z,4.52
2022-11-16T07:19:23.632Z,4.56
2022-11-16T07:21:25.991Z,4.54
2022-11-16T07:23:30.376Z,4.56
2022-11-16T07:25:34.423Z,4.55
2022-11-16T07:27:36.470Z,4.52
2022-11-16T07:29:39.313Z,4.54
2022-11-16T07:31:44.237Z,4.54
2022-11-16T07:33:46.086Z,4.59
2022-11-16T07:35:48.998Z,4.59
2022-11-16T07:37:50.909Z,4.59
2022-11-16T07:39:52.795Z,4.59
2022-11-16T07:41:54.767Z,4.62
2022-11-16T07:43:57.167Z,4.63
2022-11-16T07:48:42.807Z,4.67
2022-11-16T07:50:44.712Z,4.65
2022-11-16T07:52:47.709Z,4.73
2022-11-16T07:54:50.613Z,4.79
2022-11-16T07:56:52.510Z,4.83
2022-11-16T07:58:55.387Z,4.82
2022-11-16T08:01:11.653Z,4.83
2022-11-16T08:03:18.192Z,4.82
2022-11-16T08:05:23.789Z,4.82
2022-11-16T08:07:26.695Z,4.81
2022-11-16T08:09:28.775Z,4.85
2022-11-16T08:11:30.649Z,4.81
2022-11-16T08:13:35.199Z,4.84
2022-11-16T08:15:37.082Z,4.86
2022-11-16T08:17:38.980Z,4.82
2022-11-16T08:19:42.526Z,4.85
2022-11-16T08:21:45.957Z,4.86
2022-11-16T08:23:47.930Z,4.85
2022-11-16T08:25:49.831Z,4.86
2022-11-16T08:27:51.716Z,4.86
2022-11-16T08:29:53.578Z,4.90
2022-11-16T08:31:55.766Z,4.89
2022-11-16T08:34:00.521Z,4.91
2022-11-16T08:36:14.025Z,4.86
2022-11-16T08:38:16.529Z,4.83
2022-11-16T08:40:18.489Z,4.88
2022-11-16T08:42:21.629Z,4.86
2022-11-16T08:44:23.703Z,4.88
2022-11-16T08:46:26.424Z,4.90
2022-11-16T08:48:28.350Z,4.91
2022-11-16T08:50:33.446Z,4.86
2022-11-16T08:52:41.668Z,4.85
2022-11-16T08:54:43.587Z,4.86
2022-11-16T08:56:45.458Z,4.85
2022-11-16T08:58:48.283Z,4.85
2022-11-16T09:00:53.287Z,4.85
2022-11-16T09:02:55.214Z,4.88
2022-11-16T09:04:57.392Z,4.89
2022-11-16T09:07:00.343Z,4.88
2022-11-16T09:09:04.412Z,4.90
2022-11-16T09:11:11.890Z,4.91
2022-11-16T09:13:14.874Z,4.92
2022-11-16T09:15:16.815Z,4.91
2022-11-16T09:17:22.991Z,4.91
2022-11-16T09:19:27.272Z,4.90
2022-11-16T09:21:30.367Z,4.89
2022-11-16T09:23:32.311Z,4.91
2022-11-16T09:25:34.148Z,4.95
2022-11-16T09:27:38.090Z,5.01
2022-11-16T09:29:39.924Z,5.06
2022-11-16T09:31:44.928Z,5.05
2022-11-16T09:33:47.944Z,5.06
2022-11-16T09:35:49.843Z,5.08
2022-11-16T09:37:51.676Z,5.06
2022-11-16T09:39:53.562Z,5.05
2022-11-16T09:42:24.191Z,5.08
2022-11-16T09:44:31.880Z,5.06
2022-11-16T09:46:52.919Z,5.05
2022-11-16T09:48:59.012Z,5.01
2022-11-16T09:51:07.702Z,4.98
2022-11-16T09:53:46.993Z,4.90
2022-11-16T09:56:21.932Z,4.89
2022-11-16T09:58:34.588Z,4.84
2022-11-16T10:00:41.545Z,4.82
2022-11-16T10:02:48.243Z,4.86
2022-11-16T10:04:58.600Z,4.88
2022-11-16T10:07:12.382Z,4.92
2022-11-16T10:09:14.579Z,4.98
2022-11-16T10:11:16.443Z,4.99
2022-11-16T10:13:38.278Z,4.99
2022-11-16T10:15:50.745Z,4.99
2022-11-16T10:18:17.430Z,5.05
2022-11-16T10:20:41.587Z,5.02
2022-11-16T10:22:59.842Z,5.03
2022-11-16T10:25:25.839Z,5.07
2022-11-16T10:27:39.185Z,5.10
2022-11-16T10:30:07.308Z,5.09
2022-11-16T10:32:22.610Z,5.14
2022-11-16T10:34:42.599Z,5.14
2022-11-16T10:36:45.318Z,5.16
2022-11-16T10:38:47.302Z,5.15
2022-11-16T10:41:34.980Z,5.14
2022-11-16T10:43:37.411Z,5.10
2022-11-16T10:45:58.135Z,5.15
2022-11-16T10:47:59.969Z,5.15
2022-11-16T10:50:14.720Z,5.14
2022-11-16T10:52:16.591Z,5.14
2022-11-16T10:54:18.804Z,5.11
2022-11-16T10:56:45.849Z,5.14
2022-11-16T10:59:08.402Z,5.12
2022-11-16T11:01:10.676Z,5.13
2022-11-16T11:03:13.435Z,5.15
2022-11-16T11:05:20.404Z,5.15
2022-11-16T11:07:29.585Z,5.18
2022-11-16T11:09:37.036Z,5.16
2022-11-16T11:11:57.559Z,5.19
2022-11-16T11:14:08.983Z,5.23
2022-11-16T11:16:18.501Z,5.24
2022-11-16T11:18:23.440Z,5.28
2022-11-16T11:20:25.509Z,5.29
2022-11-16T11:22:27.898Z,5.28
2022-11-16T11:24:43.836Z,5.29
2022-11-16T11:26:53.905Z,5.34
2022-11-16T11:28:56.530Z,5.39
2022-11-16T11:31:26.096Z,5.38
2022-11-16T11:33:33.379Z,5.37
2022-11-16T11:35:35.544Z,5.39
2022-11-16T11:37:39.928Z,5.31
2022-11-16T11:39:42.966Z,5.32
2022-11-16T11:41:47.074Z,5.28
2022-11-16T11:44:06.541Z,5.27
2022-11-16T11:46:42.206Z,5.28
2022-11-16T11:49:25.274Z,5.28
2022-11-16T11:51:36.055Z,5.27
2022-11-16T11:53:58.045Z,5.26
2022-11-16T11:56:00.583Z,5.25
2022-11-16T11:58:06.414Z,5.25
2022-11-16T12:00:09.517Z,5.26
2022-11-16T12:02:36.545Z,5.34
2022-11-16T12:04:53.316Z,5.32
2022-11-16T12:07:07.216Z,5.31
2022-11-16T12:09:09.121Z,5.32
2022-11-16T12:11:39.186Z,5.35
2022-11-16T12:14:03.345Z,5.34
2022-11-16T12:16:13.875Z,5.33
2022-11-16T12:18:29.145Z,5.34
2022-11-16T12:21:13.393Z,5.40
2022-11-16T12:23:27.592Z,5.43
2022-11-16T12:25:46.010Z,5.41
2022-11-16T12:28:18.781Z,5.42
2022-11-16T12:30:24.043Z,5.39
2022-11-16T12:32:37.954Z,5.41
2022-11-16T12:34:48.634Z,5.34
2022-11-16T12:37:16.135Z,5.31
2022-11-16T12:39:54.550Z,5.22
2022-11-16T12:42:27.918Z,5.16
2022-11-16T12:44:45.961Z,5.18
2022-11-16T12:47:32.081Z,4.86
2022-11-16T12:50:01.884Z,4.62
2022-11-16T12:52:23.683Z,4.50
2022-11-16T12:57:53.837Z,4.24
2022-11-16T13:00:01.912Z,4.09
2022-11-16T13:02:34.158Z,3.96
2022-11-16T13:04:45.822Z,3.92
2022-11-16T13:07:10.968Z,3.83
2022-11-16T13:09:18.424Z,3.83
2022-11-16T13:11:26.008Z,3.78
2022-11-16T13:13:38.829Z,3.69
2022-11-16T13:15:48.967Z,3.66
2022-11-16T13:18:04.022Z,3.62
2022-11-16T13:20:32.089Z,3.61
2022-11-16T13:22:47.040Z,3.57
2022-11-16T13:25:13.144Z,3.49
2022-11-16T13:27:48.278Z,3.51
2022-11-16T13:30:35.134Z,3.45
2022-11-16T13:32:51.941Z,3.43
2022-11-16T13:35:18.972Z,3.38
2022-11-16T13:37:39.296Z,3.35
2022-11-16T13:40:21.707Z,3.34
2022-11-16T13:42:25.024Z,3.32
2022-11-16T13:44:33.848Z,3.30
2022-11-16T13:46:55.945Z,3.28
2022-11-16T13:48:59.602Z,3.23
2022-11-16T13:51:16.403Z,3.25
2022-11-16T13:56:00.628Z,3.17
2022-11-16T13:58:21.834Z,3.13
2022-11-16T14:00:30.811Z,3.10
2022-11-16T14:02:36.541Z,3.03
2022-11-16T14:05:13.497Z,2.98
2022-11-16T14:07:52.342Z,2.91
2022-11-16T14:09:54.285Z,2.88
2022-11-16T14:12:34.891Z,2.86
2022-11-16T14:15:13.782Z,2.83
2022-11-16T14:17:54.887Z,2.86
2022-11-16T14:19:57.847Z,2.82
2022-11-16T14:22:12.678Z,2.80
2022-11-16T14:24:40.109Z,2.72
2022-11-16T14:27:15.816Z,2.73
2022-11-16T14:29:46.792Z,2.72
2022-11-16T14:31:56.120Z,2.75
2022-11-16T14:34:00.926Z,2.73
2022-11-16T14:36:06.572Z,2.66
2022-11-16T14:38:21.959Z,2.66
2022-11-16T14:40:24.277Z,2.70
2022-11-16T14:42:54.278Z,2.74
2022-11-16T14:45:06.340Z,2.63
2022-11-16T14:47:21.234Z,2.58
2022-11-16T14:49:26.231Z,2.60
2022-11-16T14:51:42.796Z,2.65
2022-11-16T14:54:14.963Z,2.66
2022-11-16T14:56:18.461Z,2.63
2022-11-16T14:58:23.044Z,2.66
2022-11-16T15:00:26.114Z,2.62
2022-11-16T15:02:38.293Z,2.63
2022-11-16T15:04:41.422Z,2.65
2022-11-16T15:06:50.848Z,2.61
2022-11-16T15:08:59.334Z,2.62
2022-11-16T15:11:11.731Z,2.62
2022-11-16T15:13:30.996Z,2.63
2022-11-16T15:15:35.948Z,2.69
2022-11-16T15:17:51.974Z,2.59
2022-11-16T15:20:02.340Z,2.55
2022-11-16T15:22:05.520Z,2.55
2022-11-16T15:24:29.775Z,2.59
2022-11-16T15:26:34.457Z,2.59
2022-11-16T15:28:37.662Z,2.64
2022-11-16T15:30:40.677Z,2.63
2022-11-16T15:32:45.620Z,2.55
2022-11-16T15:34:54.897Z,2.54
2022-11-16T15:36:56.844Z,2.53
2022-11-16T15:39:02.768Z,2.60
2022-11-16T15:41:06.921Z,2.60
2022-11-16T15:43:25.401Z,2.57
2022-11-16T15:45:28.573Z,2.57
2022-11-16T15:47:32.562Z,2.61
2022-11-16T15:49:40.404Z,2.61
2022-11-16T15:51:45.962Z,2.54
2022-11-16T15:53:53.031Z,2.50
2022-11-16T15:56:01.548Z,2.59
2022-11-16T15:58:26.744Z,2.55
2022-11-16T16:00:29.816Z,2.57
2022-11-16T16:02:37.793Z,2.58
2022-11-16T16:04:41.573Z,2.60
2022-11-16T16:06:53.877Z,2.59
2022-11-16T16:09:06.598Z,2.62
2022-11-16T16:11:26.740Z,2.61
2022-11-16T16:13:35.173Z,2.65
2022-11-16T16:15:37.677Z,2.69
2022-11-16T16:17:46.531Z,2.68
2022-11-16T16:19:56.176Z,2.65
2022-11-16T16:22:01.314Z,2.72
2022-11-16T16:24:04.350Z,2.71
2022-11-16T16:26:06.469Z,2.67
2022-11-16T16:28:13.750Z,2.69
2022-11-16T16:30:16.511Z,2.70
2022-11-16T16:32:23.948Z,2.69
2022-11-16T16:34:26.090Z,2.71
2022-11-16T16:36:30.018Z,2.72
2022-11-16T16:38:31.958Z,2.75
2022-11-16T16:40:35.854Z,2.73
2022-11-16T16:42:43.086Z,2.74
2022-11-16T16:44:46.294Z,2.78
2022-11-16T16:46:48.195Z,2.80
2022-11-16T16:48:52.064Z,2.73
2022-11-16T16:50:54.147Z,2.75
2022-11-16T16:52:56.069Z,2.78
2022-11-16T16:54:59.934Z,2.72
2022-11-16T16:57:02.631Z,2.69
2022-11-16T16:59:04.514Z,2.72
2022-11-16T17:01:06.520Z,2.71
2022-11-16T17:03:09.430Z,2.65
2022-11-16T17:05:11.758Z,2.68
2022-11-16T17:07:14.245Z,2.73
2022-11-16T17:09:22.044Z,2.78
2022-11-16T17:11:24.478Z,2.82
2022-11-16T17:13:26.492Z,2.80
2022-11-16T17:15:30.067Z,2.80
2022-11-16T17:17:36.371Z,2.83
2022-11-16T17:19:38.766Z,2.83
2022-11-16T17:21:41.085Z,2.81
2022-11-16T17:23:43.189Z,2.83
2022-11-16T17:25:45.451Z,2.85
2022-11-16T17:27:48.748Z,2.88
2022-11-16T17:29:53.133Z,2.88
2022-11-16T17:31:56.418Z,2.84
2022-11-16T17:33:58.904Z,2.83
2022-11-16T17:36:03.297Z,2.84
2022-11-16T17:38:06.756Z,2.87
2022-11-16T17:40:09.873Z,2.88
2022-11-16T17:42:11.834Z,2.87
2022-11-16T17:44:18.610Z,2.89
2022-11-16T17:46:26.159Z,2.86
2022-11-16T17:48:28.256Z,2.89
2022-11-16T17:50:30.141Z,2.90
2022-11-16T17:52:33.575Z,2.94
2022-11-16T17:54:35.585Z,2.90
2022-11-16T17:56:38.239Z,2.99
2022-11-16T17:58:40.975Z,2.94
2022-11-16T18:00:43.121Z,2.95
2022-11-16T18:02:45.623Z,3.02
2022-11-16T18:04:51.031Z,3.01
2022-11-16T18:06:53.718Z,3.00
2022-11-16T18:08:57.727Z,2.97
2022-11-16T18:11:16.763Z,2.96
2022-11-16T18:13:18.768Z,2.96
2022-11-16T18:15:28.391Z,2.96
2022-11-16T18:17:31.975Z,2.95
2022-11-16T18:19:34.354Z,3.08
2022-11-16T18:21:41.851Z,2.79
2022-11-16T18:23:44.043Z,2.53
2022-11-16T18:25:47.233Z,2.73
2022-11-16T18:27:56.317Z,2.80
2022-11-16T18:29:58.547Z,2.73
2022-11-16T18:32:02.022Z,2.78
2022-11-16T18:34:04.358Z,2.75
2022-11-16T18:36:08.017Z,2.75
2022-11-16T18:38:13.309Z,2.69
2022-11-16T18:40:16.090Z,2.72
2022-11-16T18:42:19.069Z,2.80
2022-11-16T18:44:21.411Z,2.82
2022-11-16T18:46:28.346Z,2.82
2022-11-16T18:48:31.538Z,2.76
2022-11-16T18:50:33.914Z,2.79
2022-11-16T18:52:36.402Z,2.78
2022-11-16T18:54:38.386Z,2.74
2022-11-16T18:56:40.657Z,2.77
2022-11-16T18:58:50.335Z,2.80
2022-11-16T19:00:55.263Z,2.83
2022-11-16T19:03:00.648Z,2.86
2022-11-16T19:05:03.220Z,2.84
2022-11-16T19:07:06.100Z,2.90
2022-11-16T19:09:10.247Z,2.87
2022-11-16T19:11:14.993Z,2.86
2022-11-16T19:13:18.896Z,2.88
2022-11-16T19:15:21.309Z,2.85
2022-11-16T19:17:25.316Z,2.81
2022-11-16T19:19:28.472Z,2.82
2022-11-16T19:21:31.740Z,2.85
2022-11-16T19:23:43.605Z,2.84
2022-11-16T19:25:46.541Z,2.86
2022-11-16T19:27:48.857Z,2.86
2022-11-16T19:29:51.186Z,2.90
2022-11-16T19:31:53.632Z,2.90
2022-11-16T19:34:09.346Z,2.85
2022-11-16T19:36:20.199Z,2.81
2022-11-16T19:38:22.616Z,2.89
2022-11-16T19:40:25.282Z,2.86
2022-11-16T19:42:28.932Z,2.82
2022-11-16T19:44:30.912Z,2.83
2022-11-16T19:46:34.233Z,2.83
2022-11-16T19:48:36.449Z,2.82
2022-11-16T19:50:38.729Z,2.86
2022-11-16T19:52:41.123Z,2.81
2022-11-16T19:54:46.316Z,2.86
2022-11-16T19:56:54.677Z,2.85
2022-11-16T19:59:00.877Z,2.88
2022-11-16T20:01:08.680Z,2.81
2022-11-16T20:03:12.289Z,2.77
2022-11-16T20:05:15.189Z,2.78
2022-11-16T20:07:18.624Z,2.70
2022-11-16T20:09:21.932Z,2.74
2022-11-16T20:11:28.365Z,2.78
2022-11-16T20:13:30.699Z,2.82
2022-11-16T20:15:33.037Z,2.83
2022-11-16T20:17:35.714Z,2.83
2022-11-16T20:19:38.046Z,2.84
2022-11-16T20:21:41.929Z,2.83
2022-11-16T20:23:45.976Z,2.84
2022-11-16T20:25:50.756Z,2.81
2022-11-16T20:27:53.050Z,2.74
2022-11-16T20:30:09.294Z,2.85
2022-11-16T20:32:12.032Z,2.87
2022-11-16T20:34:22.755Z,2.85
2022-11-16T20:36:31.131Z,2.90
2022-11-16T20:38:35.960Z,2.86
2022-11-16T20:40:38.265Z,2.88
2022-11-16T20:42:40.367Z,2.87
2022-11-16T20:44:43.769Z,2.83
2022-11-16T20:46:46.344Z,2.81
2022-11-16T20:48:49.359Z,2.85
2022-11-16T20:50:53.495Z,2.81
2022-11-16T20:52:56.928Z,2.82
2022-11-16T20:54:59.322Z,2.84
2022-11-16T20:57:02.499Z,2.84
2022-11-16T20:59:05.790Z,2.91
2022-11-16T21:01:13.616Z,2.85
2022-11-16T21:03:15.700Z,2.84
2022-11-16T21:05:17.998Z,2.90
2022-11-16T21:07:19.939Z,2.83
2022-11-16T21:09:28.499Z,2.85
2022-11-16T21:11:52.279Z,2.90
2022-11-16T21:14:12.705Z,2.85
2022-11-16T21:16:16.127Z,2.89
2022-11-16T21:18:18.054Z,2.88
2022-11-16T21:20:27.420Z,2.87
2022-11-16T21:22:32.890Z,2.85
2022-11-16T21:24:35.298Z,2.88
2022-11-16T21:26:39.002Z,2.86
2022-11-16T21:28:41.787Z,2.86
2022-11-16T21:30:54.177Z,2.80
2022-11-16T21:32:56.167Z,2.64
2022-11-16T21:34:58.124Z,2.56
2022-11-16T21:37:00.317Z,2.57
2022-11-16T21:39:02.469Z,2.58
2022-11-16T21:41:06.802Z,2.59
2022-11-16T21:43:08.780Z,2.56
2022-11-16T21:45:11.170Z,2.59
2022-11-16T21:48:12.201Z,2.56
2022-11-16T21:50:31.335Z,2.54
2022-11-16T21:52:35.036Z,2.56
2022-11-16T21:55:03.010Z,2.57
2022-11-16T21:57:05.037Z,2.56
2022-11-16T21:59:07.052Z,2.57
2022-11-16T22:01:10.299Z,2.61
2022-11-16T22:03:12.207Z,2.61
2022-11-16T22:05:33.080Z,2.58
2022-11-16T22:07:38.018Z,2.58
2022-11-16T22:09:40.205Z,2.56
2022-11-16T22:11:42.146Z,2.59
2022-11-16T22:13:54.138Z,2.60
2022-11-16T22:15:56.257Z,2.57
2022-11-16T22:17:58.232Z,2.56
2022-11-16T22:20:00.349Z,2.61
2022-11-16T22:22:02.268Z,2.61
2022-11-16T22:24:04.438Z,2.61
2022-11-16T22:26:12.006Z,2.60
2022-11-16T22:28:20.597Z,2.59
2022-11-16T22:30:24.325Z,2.60
2022-11-16T22:32:26.548Z,2.61
2022-11-16T22:34:28.712Z,2.64
2022-11-16T22:36:30.657Z,2.64
2022-11-16T22:38:33.885Z,2.60
2022-11-16T22:40:35.715Z,2.63
2022-11-16T22:42:37.646Z,2.60
2022-11-16T22:44:39.604Z,2.66
2022-11-16T22:46:41.633Z,2.63
2022-11-16T22:48:44.265Z,2.63
2022-11-16T22:50:48.138Z,2.65
2022-11-16T22:52:50.178Z,2.66
2022-11-16T22:54:52.063Z,2.64
2022-11-16T22:56:53.948Z,2.60
2022-11-16T22:58:56.893Z,2.63
2022-11-16T23:00:58.757Z,2.61
2022-11-16T23:03:00.620Z,2.56
2022-11-16T23:05:02.445Z,2.63
2022-11-16T23:07:04.453Z,2.60
2022-11-16T23:09:08.409Z,2.58
2022-11-16T23:11:33.571Z,2.58
2022-11-16T23:13:54.222Z,2.60
2022-11-16T23:15:57.560Z,2.59
2022-11-16T23:17:59.410Z,2.60
2022-11-16T23:20:19.714Z,2.54
2022-11-16T23:22:40.614Z,2.58
2022-11-16T23:25:01.540Z,2.58
2022-11-16T23:27:22.551Z,2.60
2022-11-16T23:29:24.385Z,2.60
2022-11-16T23:31:26.313Z,2.54
2022-11-16T23:33:46.543Z,2.57
2022-11-16T23:35:49.368Z,2.48
2022-11-16T23:37:52.151Z,2.54
2022-11-16T23:39:54.060Z,2.54
2022-11-16T23:42:14.630Z,2.53
2022-11-16T23:44:16.521Z,2.56
2022-11-16T23:46:18.269Z,2.53
2022-11-16T23:48:19.975Z,2.51
2022-11-16T23:50:21.834Z,2.50
2022-11-16T23:52:24.637Z,2.53
2022-11-16T23:54:28.491Z,2.51
2022-11-16T23:56:30.737Z,2.50
2022-11-16T23:58:33.562Z,2.49
